Time;durP1;ratioP1;P1;durP2;ratioP2;P2;SDS_P1;SDS_P2;PMS_P1;PMS_P2;Temp;Humidity;BMP_temperature;BMP_pressure;BME280_temperature;BME280_humidity;BME280_pressure;Samples;Min_cycle;Max_cycle;Signal;HPM_P1;HPM_P2
2021/12/18 00:01:43;;;;;;;7.30;5.80;;;6.40;99.90;;;;;;5071831;28;20742;-88
2021/12/18 00:04:08;;;;;;;8.03;5.77;;;6.40;99.90;;;;;;5066785;28;20416;-89
2021/12/18 00:06:34;;;;;;;6.87;6.03;;;6.40;99.90;;;;;;5066666;28;20408;-89
2021/12/18 00:09:01;;;;;;;7.75;5.78;;;6.30;99.90;;;;;;5067930;28;20397;-90
2021/12/18 00:11:27;;;;;;;7.47;5.53;;;6.30;99.90;;;;;;5067464;28;20393;-89
2021/12/18 00:13:53;;;;;;;7.15;5.38;;;6.50;99.90;;;;;;5082692;28;20389;-89
2021/12/18 00:16:19;;;;;;;6.53;5.83;;;6.50;99.90;;;;;;5068216;28;20494;-90
2021/12/18 00:18:47;;;;;;;9.00;6.15;;;6.60;99.90;;;;;;5068056;28;20394;-90
2021/12/18 00:21:15;;;;;;;10.00;6.65;;;6.50;99.90;;;;;;5070525;28;20411;-90
2021/12/18 00:23:41;;;;;;;11.10;7.70;;;6.50;99.90;;;;;;5082220;28;20876;-89
2021/12/18 00:26:07;;;;;;;12.27;7.43;;;6.50;99.90;;;;;;5068805;28;20395;-89
2021/12/18 00:28:33;;;;;;;10.50;7.43;;;6.50;99.90;;;;;;5067895;28;20447;-89
2021/12/18 00:30:58;;;;;;;12.52;8.05;;;6.60;99.90;;;;;;5069640;28;20392;-88
2021/12/18 00:33:24;;;;;;;10.50;8.20;;;6.60;99.90;;;;;;5063000;28;20434;-89
2021/12/18 00:35:50;;;;;;;11.25;8.35;;;6.60;99.90;;;;;;5060288;28;20387;-91
2021/12/18 00:38:15;;;;;;;14.13;8.45;;;6.60;99.90;;;;;;5052452;28;20761;-89
2021/12/18 00:40:59;;;;;;;11.47;8.20;;;6.60;99.90;;;;;;5056241;28;20429;-90
2021/12/18 00:43:31;;;;;;;12.65;8.98;;;6.60;99.90;;;;;;5069977;28;20445;-89
2021/12/18 00:45:57;;;;;;;12.23;8.73;;;6.60;99.90;;;;;;5056539;28;20431;-89
2021/12/18 00:48:23;;;;;;;14.30;8.60;;;6.60;99.90;;;;;;5071237;28;20910;-89
2021/12/18 00:50:49;;;;;;;13.63;8.40;;;6.60;99.90;;;;;;5073218;28;20364;-89
2021/12/18 00:53:16;;;;;;;13.98;9.27;;;6.60;99.90;;;;;;5073676;28;20395;-89
2021/12/18 00:55:42;;;;;;;15.75;10.00;;;6.60;99.90;;;;;;5072412;28;20386;-90
2021/12/18 00:58:07;;;;;;;17.25;10.88;;;6.60;99.90;;;;;;5095356;28;20387;-90
2021/12/18 01:00:34;;;;;;;16.33;10.40;;;6.60;99.90;;;;;;5079483;28;20372;-89
2021/12/18 01:03:02;;;;;;;13.68;9.68;;;6.50;99.90;;;;;;5074783;28;20376;-89
2021/12/18 01:05:30;;;;;;;13.63;9.52;;;6.60;99.90;;;;;;5075194;28;20364;-88
2021/12/18 01:08:00;;;;;;;12.73;8.43;;;6.60;99.90;;;;;;5075108;28;20446;-88
2021/12/18 01:13:17;;;;;;;9.50;7.60;;;6.60;99.90;;;;;;5074663;28;20442;-90
2021/12/18 01:15:48;;;;;;;12.63;8.60;;;6.60;99.90;;;;;;5056306;28;20896;-89
2021/12/18 01:23:42;;;;;;;13.48;9.02;;;6.60;99.90;;;;;;5091548;28;20388;-90
2021/12/18 01:26:08;;;;;;;11.75;8.52;;;6.50;99.90;;;;;;5063061;28;20480;-89
2021/12/18 01:28:34;;;;;;;12.98;8.45;;;6.50;99.90;;;;;;5074640;28;20401;-88
2021/12/18 01:31:00;;;;;;;11.93;8.00;;;6.40;99.90;;;;;;5073942;28;21008;-89
2021/12/18 01:33:26;;;;;;;11.90;8.55;;;6.50;99.90;;;;;;5072548;28;20388;-90
2021/12/18 01:35:53;;;;;;;12.02;7.43;;;6.50;99.90;;;;;;5070083;28;20885;-89
2021/12/18 01:38:21;;;;;;;13.18;8.23;;;6.60;99.90;;;;;;5073490;28;21251;-90
2021/12/18 01:40:47;;;;;;;11.77;8.03;;;6.60;99.90;;;;;;5072383;28;20383;-89
2021/12/18 01:46:10;;;;;;;13.75;8.95;;;6.60;99.90;;;;;;5074994;28;20455;-89
2021/12/18 01:53:40;;;;;;;10.93;7.82;;;6.60;99.90;;;;;;5072779;28;20390;-87
2021/12/18 01:56:06;;;;;;;9.95;7.85;;;6.60;99.90;;;;;;5056535;28;20419;-90
2021/12/18 01:58:32;;;;;;;9.82;7.72;;;6.70;99.90;;;;;;5066431;28;20477;-89
2021/12/18 02:00:59;;;;;;;12.32;8.38;;;6.70;99.90;;;;;;5053742;28;20493;-89
2021/12/18 02:03:26;;;;;;;11.23;8.52;;;6.70;99.90;;;;;;5054391;28;20397;-89
2021/12/18 02:05:52;;;;;;;12.25;9.02;;;6.80;99.90;;;;;;5055509;28;20431;-89
2021/12/18 02:08:20;;;;;;;14.93;8.90;;;6.80;99.90;;;;;;5055280;28;20471;-89
2021/12/18 02:10:55;;;;;;;14.02;9.20;;;6.70;99.90;;;;;;5073064;28;20379;-89
2021/12/18 02:21:29;;;;;;;12.82;8.50;;;6.60;99.90;;;;;;5092434;28;20484;-87
2021/12/18 02:23:56;;;;;;;10.05;7.15;;;6.50;99.90;;;;;;5073630;28;20909;-89
2021/12/18 02:26:22;;;;;;;8.98;7.30;;;6.60;99.90;;;;;;5066700;28;20938;-90
2021/12/18 02:28:50;;;;;;;10.43;7.53;;;6.60;99.90;;;;;;5053540;28;20445;-90
2021/12/18 02:31:17;;;;;;;10.90;8.05;;;6.50;99.90;;;;;;5054038;28;20390;-86
2021/12/18 02:33:44;;;;;;;9.70;7.18;;;6.50;99.90;;;;;;5053124;28;20416;-89
2021/12/18 02:36:12;;;;;;;9.70;7.43;;;6.60;99.90;;;;;;5056186;28;20393;-88
2021/12/18 02:39:03;;;;;;;13.10;8.40;;;6.50;99.90;;;;;;5071429;28;20808;-88
2021/12/18 02:41:36;;;;;;;13.10;9.07;;;6.50;99.90;;;;;;5089624;28;21080;-87
2021/12/18 02:44:09;;;;;;;12.65;8.73;;;6.50;99.90;;;;;;5073375;28;20384;-89
2021/12/18 02:46:36;;;;;;;11.60;8.77;;;6.50;99.90;;;;;;5082598;28;20447;-88
2021/12/18 02:49:12;;;;;;;14.13;9.52;;;6.40;99.90;;;;;;5052481;28;20440;-89
2021/12/18 02:51:38;;;;;;;12.50;9.27;;;6.40;99.90;;;;;;5052519;28;20425;-88
2021/12/18 02:54:05;;;;;;;15.00;9.97;;;6.40;99.90;;;;;;5071695;28;20413;-90
2021/12/18 02:56:31;;;;;;;13.53;10.00;;;6.40;99.90;;;;;;5058546;28;20391;-89
2021/12/18 02:59:03;;;;;;;12.93;9.93;;;6.40;99.90;;;;;;5072354;28;20381;-89
2021/12/18 03:01:29;;;;;;;16.02;10.75;;;6.40;99.90;;;;;;5072502;28;20444;-88
2021/12/18 03:03:57;;;;;;;13.60;9.87;;;6.50;99.90;;;;;;5090104;28;20433;-88
2021/12/18 03:06:40;;;;;;;12.15;9.18;;;6.50;99.90;;;;;;5069049;28;20382;-88
2021/12/18 03:25:27;;;;;;;9.38;7.72;;;6.40;99.90;;;;;;5070821;28;20413;-87
2021/12/18 03:27:54;;;;;;;9.48;6.97;;;6.40;99.90;;;;;;5053257;28;20769;-88
2021/12/18 03:30:20;;;;;;;9.90;7.70;;;6.40;99.90;;;;;;5052185;28;20382;-89
2021/12/18 03:32:46;;;;;;;9.80;7.15;;;6.30;99.90;;;;;;5051963;28;20872;-89
2021/12/18 03:35:13;;;;;;;7.90;6.93;;;6.30;99.90;;;;;;5070292;28;20378;-88
2021/12/18 03:37:40;;;;;;;10.50;7.35;;;6.30;99.90;;;;;;5054709;28;20414;-86
2021/12/18 03:40:10;;;;;;;10.20;7.00;;;6.40;99.90;;;;;;5052375;28;20379;-90
2021/12/18 03:42:36;;;;;;;9.25;6.93;;;6.30;99.90;;;;;;5064480;28;20392;-90
2021/12/18 03:45:03;;;;;;;9.00;7.03;;;6.40;99.90;;;;;;5071289;28;20384;-89
2021/12/18 03:47:29;;;;;;;9.13;6.70;;;6.50;99.90;;;;;;5060537;28;20441;-88
2021/12/18 03:49:54;;;;;;;8.02;6.43;;;6.50;99.90;;;;;;5065031;28;20388;-88
2021/12/18 03:52:20;;;;;;;9.40;7.20;;;6.60;99.90;;;;;;5070736;28;20741;-89
2021/12/18 03:54:46;;;;;;;8.75;6.70;;;6.60;99.90;;;;;;5070096;28;20416;-89
2021/12/18 03:57:12;;;;;;;6.87;6.17;;;6.70;99.90;;;;;;5064147;28;20378;-88
2021/12/18 03:59:37;;;;;;;10.50;7.17;;;6.60;99.90;;;;;;5051865;28;20536;-88
2021/12/18 04:02:03;;;;;;;8.68;6.50;;;6.70;99.90;;;;;;5052894;28;20394;-89
2021/12/18 04:04:29;;;;;;;9.55;7.00;;;6.70;99.90;;;;;;5083113;28;20390;-90
2021/12/18 04:07:00;;;;;;;8.97;6.90;;;6.60;99.90;;;;;;5087878;28;20384;-88
2021/12/18 04:09:31;;;;;;;9.88;6.55;;;6.60;99.90;;;;;;5068946;28;20411;-88
2021/12/18 04:11:57;;;;;;;10.47;6.90;;;6.70;99.90;;;;;;5071132;28;20384;-90
2021/12/18 04:14:22;;;;;;;9.35;6.47;;;6.70;99.90;;;;;;5071105;28;20376;-89
2021/12/18 04:16:48;;;;;;;9.70;6.97;;;6.70;99.90;;;;;;5064466;28;20735;-88
2021/12/18 04:19:14;;;;;;;8.67;5.93;;;6.60;99.90;;;;;;5066966;28;20774;-88
2021/12/18 04:21:39;;;;;;;6.30;5.30;;;6.60;99.90;;;;;;5057009;28;20380;-90
2021/12/18 04:24:05;;;;;;;7.82;5.60;;;6.60;99.90;;;;;;5069633;28;20407;-88
2021/12/18 04:26:32;;;;;;;7.45;5.85;;;6.60;99.90;;;;;;5070591;28;20391;-86
2021/12/18 04:28:58;;;;;;;7.82;5.90;;;6.60;99.90;;;;;;5053132;28;20410;-88
2021/12/18 04:31:24;;;;;;;7.78;6.38;;;6.50;99.90;;;;;;5050941;28;20393;-88
2021/12/18 04:33:50;;;;;;;7.35;5.88;;;6.50;99.90;;;;;;5069570;28;20494;-88
2021/12/18 04:36:16;;;;;;;7.07;5.80;;;6.50;99.90;;;;;;5071949;28;20965;-88
2021/12/18 04:38:42;;;;;;;7.35;5.80;;;6.50;99.90;;;;;;5071298;28;20389;-87
2021/12/18 04:41:10;;;;;;;6.93;5.57;;;6.40;99.90;;;;;;5051015;28;20382;-88
2021/12/18 04:43:36;;;;;;;5.60;4.80;;;6.50;99.90;;;;;;5051983;28;20438;-88
2021/12/18 04:46:02;;;;;;;4.90;4.40;;;6.40;99.90;;;;;;5051514;28;20816;-89
2021/12/18 04:48:27;;;;;;;4.68;3.97;;;6.40;99.90;;;;;;5066960;28;20408;-88
2021/12/18 04:50:53;;;;;;;5.30;4.80;;;6.40;99.90;;;;;;5071092;28;20376;-85
2021/12/18 04:53:19;;;;;;;5.13;4.60;;;6.40;99.90;;;;;;5082133;28;20438;-87
2021/12/18 04:55:45;;;;;;;5.80;5.20;;;6.40;99.90;;;;;;5052039;28;20472;-88
2021/12/18 04:58:10;;;;;;;7.05;6.22;;;6.40;99.90;;;;;;5075090;28;20758;-86
2021/12/18 05:00:41;;;;;;;6.90;5.73;;;6.30;99.90;;;;;;5092564;28;20456;-87
2021/12/18 05:03:11;;;;;;;7.78;6.45;;;6.40;99.90;;;;;;5091780;28;20417;-86
2021/12/18 05:05:37;;;;;;;7.57;6.30;;;6.40;99.90;;;;;;5068690;28;20405;-85
2021/12/18 05:08:04;;;;;;;7.60;6.60;;;6.40;99.90;;;;;;5098741;28;20398;-88
2021/12/18 05:10:30;;;;;;;8.15;6.60;;;6.40;99.90;;;;;;5109701;28;20878;-85
2021/12/18 05:12:56;;;;;;;6.82;6.13;;;6.40;99.90;;;;;;5091233;28;20376;-86
2021/12/18 05:15:22;;;;;;;7.83;6.33;;;6.40;99.90;;;;;;5069167;28;20393;-88
2021/12/18 05:17:49;;;;;;;7.47;6.00;;;6.40;99.90;;;;;;5053487;28;20374;-90
2021/12/18 05:20:15;;;;;;;7.82;6.65;;;6.30;99.90;;;;;;5051205;28;20494;-89
2021/12/18 05:22:40;;;;;;;8.20;7.07;;;6.30;99.90;;;;;;5052525;28;20436;-88
2021/12/18 05:25:07;;;;;;;7.43;6.20;;;6.20;99.90;;;;;;5066436;28;20396;-87
2021/12/18 05:27:33;;;;;;;6.30;5.70;;;6.20;99.90;;;;;;5067262;28;20891;-88
2021/12/18 05:29:59;;;;;;;6.60;5.90;;;6.40;99.90;;;;;;5059118;28;20380;-88
2021/12/18 05:32:25;;;;;;;6.80;6.10;;;6.30;99.90;;;;;;5070733;28;20921;-87
2021/12/18 05:34:50;;;;;;;7.72;6.05;;;6.40;99.90;;;;;;5070587;28;20414;-89
2021/12/18 05:39:46;;;;;;;7.22;6.15;;;6.40;99.90;;;;;;5072068;28;20386;-88
2021/12/18 05:42:12;;;;;;;7.70;6.80;;;6.40;99.90;;;;;;5054386;28;20396;-89
2021/12/18 05:44:37;;;;;;;8.60;6.78;;;6.50;99.90;;;;;;5061765;28;20667;-89
2021/12/18 05:47:04;;;;;;;9.15;7.03;;;6.60;99.90;;;;;;5074317;28;20406;-88
2021/12/18 05:49:30;;;;;;;8.37;7.03;;;6.60;99.90;;;;;;5055356;28;20406;-90
2021/12/18 05:51:55;;;;;;;8.30;6.90;;;6.60;99.90;;;;;;5053653;28;20424;-88
2021/12/18 05:54:21;;;;;;;8.00;6.07;;;6.60;99.90;;;;;;5056053;28;20394;-89
2021/12/18 05:56:47;;;;;;;8.02;6.85;;;6.60;99.90;;;;;;5073475;28;20373;-88
2021/12/18 05:59:12;;;;;;;8.52;7.15;;;6.70;99.90;;;;;;5057987;28;20393;-86
2021/12/18 06:01:38;;;;;;;8.68;7.20;;;6.70;99.90;;;;;;5054503;28;20394;-87
2021/12/18 06:04:04;;;;;;;8.17;6.60;;;6.60;99.90;;;;;;5072647;28;20377;-89
2021/12/18 06:06:31;;;;;;;8.80;6.97;;;6.50;99.90;;;;;;5074196;28;20490;-90
2021/12/18 06:09:11;;;;;;;8.25;6.68;;;6.60;99.90;;;;;;5054780;28;20402;-90
2021/12/18 06:11:39;;;;;;;8.20;6.60;;;6.60;99.90;;;;;;5054126;28;20401;-89
2021/12/18 06:14:04;;;;;;;6.97;6.10;;;6.60;99.90;;;;;;5073490;28;20380;-89
2021/12/18 06:16:30;;;;;;;7.00;6.00;;;6.70;99.90;;;;;;5071377;28;20385;-90
2021/12/18 06:18:56;;;;;;;7.60;6.40;;;6.70;99.90;;;;;;5073434;28;20475;-88
2021/12/18 06:21:22;;;;;;;7.50;6.47;;;6.60;99.90;;;;;;5061031;28;20389;-87
2021/12/18 06:23:50;;;;;;;7.82;6.32;;;6.40;99.90;;;;;;5069841;28;20385;-88
2021/12/18 06:26:16;;;;;;;7.47;6.20;;;6.50;99.90;;;;;;5059503;28;20888;-90
2021/12/18 06:28:42;;;;;;;7.57;6.43;;;6.50;99.90;;;;;;5069850;28;20495;-89
2021/12/18 06:31:07;;;;;;;8.85;6.40;;;6.40;99.90;;;;;;5069390;28;20527;-90
2021/12/18 06:33:33;;;;;;;7.63;6.03;;;6.50;99.90;;;;;;5060969;28;20421;-90
2021/12/18 06:35:59;;;;;;;8.10;6.13;;;6.50;99.90;;;;;;5053937;28;20402;-89
2021/12/18 06:38:25;;;;;;;7.50;6.32;;;6.50;99.90;;;;;;5078428;28;20389;-90
2021/12/18 06:40:52;;;;;;;8.57;7.30;;;6.50;99.90;;;;;;5052776;28;20394;-91
2021/12/18 06:43:17;;;;;;;9.32;7.60;;;6.60;99.90;;;;;;5064772;28;20376;-90
2021/12/18 06:45:43;;;;;;;8.80;7.10;;;6.60;99.90;;;;;;5062101;28;20902;-89
2021/12/18 06:48:09;;;;;;;10.10;7.10;;;6.60;99.90;;;;;;5052663;28;20436;-89
2021/12/18 06:50:36;;;;;;;9.88;7.68;;;6.50;99.90;;;;;;5053094;28;20397;-89
2021/12/18 06:53:03;;;;;;;10.10;7.83;;;6.50;99.90;;;;;;5057556;28;20467;-90
2021/12/18 06:55:30;;;;;;;10.05;8.07;;;6.60;99.90;;;;;;5064002;28;20429;-90
2021/12/18 06:57:55;;;;;;;8.98;7.55;;;6.60;99.90;;;;;;5060349;28;20390;-89
2021/12/18 07:00:22;;;;;;;8.80;6.57;;;6.50;99.90;;;;;;5072416;28;20897;-88
2021/12/18 07:02:48;;;;;;;8.10;6.55;;;6.50;99.90;;;;;;5072317;28;20403;-88
2021/12/18 07:05:14;;;;;;;8.02;6.28;;;6.40;99.90;;;;;;5066234;28;20382;-89
2021/12/18 07:07:40;;;;;;;6.50;5.80;;;6.30;99.90;;;;;;5053652;28;20909;-89
2021/12/18 07:10:08;;;;;;;8.50;6.47;;;6.40;99.90;;;;;;5057562;28;20475;-89
2021/12/18 07:12:34;;;;;;;9.57;7.88;;;6.40;99.90;;;;;;5072098;28;20373;-90
2021/12/18 07:15:00;;;;;;;10.35;8.73;;;6.30;99.90;;;;;;5071996;28;20463;-89
2021/12/18 07:17:26;;;;;;;9.13;7.60;;;6.20;99.90;;;;;;5086076;28;20856;-88
2021/12/18 07:19:52;;;;;;;9.77;7.85;;;6.30;99.90;;;;;;5071801;28;20454;-88
2021/12/18 07:22:17;;;;;;;9.98;8.07;;;6.30;99.90;;;;;;5071146;28;20378;-85
2021/12/18 07:24:43;;;;;;;9.90;8.40;;;6.30;99.90;;;;;;5069570;28;20401;-88
2021/12/18 07:27:09;;;;;;;10.00;7.93;;;6.20;99.90;;;;;;5061247;28;20731;-86
2021/12/18 07:29:34;;;;;;;9.88;7.85;;;6.10;99.90;;;;;;5058944;28;20434;-87
2021/12/18 07:32:00;;;;;;;10.93;8.03;;;6.20;99.90;;;;;;5051939;28;20473;-89
2021/12/18 07:34:25;;;;;;;10.70;7.83;;;6.10;99.90;;;;;;5064646;28;20376;-88
2021/12/18 07:36:54;;;;;;;10.65;8.00;;;6.20;99.90;;;;;;5066213;28;20424;-89
2021/12/18 07:39:20;;;;;;;9.25;7.35;;;6.10;99.90;;;;;;5072228;28;20471;-88
2021/12/18 07:41:46;;;;;;;8.90;6.95;;;6.00;99.90;;;;;;5078278;28;20482;-90
2021/12/18 07:44:11;;;;;;;9.60;6.90;;;6.10;99.90;;;;;;5092802;28;20367;-91
2021/12/18 07:46:38;;;;;;;7.63;6.23;;;6.00;99.90;;;;;;5092306;28;20956;-88
2021/12/18 07:49:05;;;;;;;7.10;5.97;;;6.10;99.90;;;;;;5092351;28;20401;-91
2021/12/18 07:51:31;;;;;;;6.43;5.45;;;6.10;99.90;;;;;;5092892;28;20522;-90
2021/12/18 07:53:58;;;;;;;6.97;5.33;;;6.10;99.90;;;;;;5086609;28;20389;-87
2021/12/18 07:56:24;;;;;;;5.90;4.68;;;6.00;99.90;;;;;;5072033;28;20369;-89
2021/12/18 07:58:50;;;;;;;5.75;4.63;;;6.00;99.90;;;;;;5091084;28;20384;-88
2021/12/18 08:01:16;;;;;;;5.07;4.40;;;6.10;99.90;;;;;;5072226;28;20490;-88
2021/12/18 08:03:42;;;;;;;5.65;4.65;;;6.10;99.90;;;;;;5072104;28;20506;-90
2021/12/18 08:06:08;;;;;;;5.95;4.95;;;6.10;99.90;;;;;;5072183;28;20957;-91
2021/12/18 08:08:34;;;;;;;6.80;4.70;;;6.20;99.90;;;;;;5071506;28;20397;-89
2021/12/18 08:10:59;;;;;;;7.05;5.05;;;6.30;99.90;;;;;;5072156;28;20376;-89
2021/12/18 08:13:25;;;;;;;6.30;5.20;;;6.20;99.90;;;;;;5090706;28;20434;-91
2021/12/18 08:15:51;;;;;;;6.03;4.93;;;6.30;99.90;;;;;;5081968;28;20397;-89
2021/12/18 08:18:16;;;;;;;7.88;5.40;;;6.30;99.90;;;;;;5088031;28;20386;-89
2021/12/18 08:20:42;;;;;;;6.43;5.43;;;6.30;99.90;;;;;;5078986;28;20377;-89
2021/12/18 08:23:08;;;;;;;6.93;5.33;;;6.30;99.90;;;;;;5072476;28;20372;-88
2021/12/18 08:25:34;;;;;;;8.13;6.07;;;6.20;99.90;;;;;;5064248;28;20879;-89
2021/12/18 08:28:01;;;;;;;8.20;6.00;;;6.30;99.90;;;;;;5062256;28;20468;-88
2021/12/18 08:30:28;;;;;;;7.43;6.05;;;6.40;99.90;;;;;;5055581;28;20905;-89
2021/12/18 08:32:55;;;;;;;8.35;6.10;;;6.50;99.90;;;;;;5051502;28;20375;-89
2021/12/18 08:35:21;;;;;;;7.40;6.45;;;6.50;99.90;;;;;;5070763;28;20412;-89
2021/12/18 08:37:47;;;;;;;8.85;6.68;;;6.50;99.90;;;;;;5051614;28;20383;-89
2021/12/18 08:40:14;;;;;;;7.40;6.07;;;6.60;99.90;;;;;;5069115;28;20433;-87
2021/12/18 08:42:40;;;;;;;8.68;6.40;;;6.70;99.90;;;;;;5073178;28;20426;-89
2021/12/18 08:45:15;;;;;;;8.38;7.00;;;6.70;99.90;;;;;;5056441;28;20423;-89
2021/12/18 08:47:42;;;;;;;10.45;7.63;;;6.80;99.90;;;;;;5071128;28;20483;-88
2021/12/18 08:50:10;;;;;;;12.37;8.87;;;6.80;99.90;;;;;;5070321;28;20480;-88
2021/12/18 08:52:36;;;;;;;10.25;8.32;;;6.70;99.90;;;;;;5090044;28;20368;-90
2021/12/18 08:55:03;;;;;;;11.48;8.88;;;6.80;99.90;;;;;;5069841;28;20427;-89
2021/12/18 08:57:29;;;;;;;11.53;8.90;;;6.80;99.90;;;;;;5069293;28;20516;-88
2021/12/18 08:59:55;;;;;;;12.43;9.07;;;6.90;99.90;;;;;;5069030;28;20793;-87
2021/12/18 09:02:20;;;;;;;12.52;9.07;;;7.00;99.90;;;;;;5084308;28;20390;-90
2021/12/18 09:04:47;;;;;;;12.07;9.38;;;7.00;99.90;;;;;;5071618;28;20436;-88
2021/12/18 09:07:13;;;;;;;12.80;10.05;;;7.00;99.90;;;;;;5081643;28;20423;-88
2021/12/18 09:09:39;;;;;;;14.30;10.52;;;7.10;99.90;;;;;;5091822;28;20476;-89
2021/12/18 09:12:06;;;;;;;14.47;10.60;;;7.00;99.90;;;;;;5092820;28;20840;-89
2021/12/18 09:14:31;;;;;;;14.57;10.82;;;7.00;99.90;;;;;;5090155;28;20377;-91
2021/12/18 09:16:57;;;;;;;17.52;11.43;;;6.90;99.90;;;;;;5076692;28;20977;-90
2021/12/18 09:19:23;;;;;;;15.73;11.55;;;6.80;99.90;;;;;;5093759;28;20391;-88
2021/12/18 09:21:49;;;;;;;16.35;11.23;;;6.80;99.90;;;;;;5075013;28;20396;-89
2021/12/18 09:24:14;;;;;;;15.10;10.40;;;6.80;99.90;;;;;;5091106;28;20380;-89
2021/12/18 09:26:40;;;;;;;14.43;9.98;;;6.90;99.90;;;;;;5074983;28;20384;-89
2021/12/18 09:29:06;;;;;;;17.03;10.73;;;7.00;99.90;;;;;;5075317;28;20428;-87
2021/12/18 09:31:31;;;;;;;17.50;11.43;;;6.90;99.90;;;;;;5075695;28;20732;-88
2021/12/18 09:33:57;;;;;;;17.70;11.27;;;6.90;99.90;;;;;;5068018;28;20382;-88
2021/12/18 09:36:23;;;;;;;15.45;10.35;;;6.90;99.90;;;;;;5069227;28;20408;-90
2021/12/18 09:38:49;;;;;;;17.27;11.70;;;7.00;99.90;;;;;;5076811;28;20381;-89
2021/12/18 09:41:15;;;;;;;19.17;11.73;;;7.10;99.90;;;;;;5077307;28;20381;-90
2021/12/18 09:43:41;;;;;;;19.75;11.60;;;7.10;99.90;;;;;;5069628;28;20455;-87
2021/12/18 09:46:12;;;;;;;18.20;11.63;;;7.20;99.90;;;;;;5055288;28;20930;-88
2021/12/18 09:48:39;;;;;;;16.77;11.27;;;7.30;99.90;;;;;;5060962;28;20920;-89
2021/12/18 09:51:11;;;;;;;15.45;10.80;;;7.30;99.90;;;;;;5074665;28;20388;-91
2021/12/18 09:53:37;;;;;;;14.63;10.20;;;7.30;99.90;;;;;;5070878;28;20482;-89
2021/12/18 09:56:04;;;;;;;15.73;10.05;;;7.30;99.90;;;;;;5072757;28;20442;-88
2021/12/18 09:58:30;;;;;;;13.30;9.00;;;7.30;99.90;;;;;;5055556;28;20402;-88
2021/12/18 10:00:56;;;;;;;12.23;7.82;;;7.40;99.90;;;;;;5060668;28;20380;-90
2021/12/18 10:03:38;;;;;;;12.85;8.27;;;7.20;99.90;;;;;;5067616;28;20402;-89
2021/12/18 10:06:33;;;;;;;13.18;8.32;;;7.20;99.90;;;;;;5054631;28;20382;-90
2021/12/18 10:08:59;;;;;;;13.80;8.15;;;7.30;99.90;;;;;;5074100;28;20926;-90
2021/12/18 10:11:24;;;;;;;13.55;8.75;;;7.30;99.90;;;;;;5068683;28;20388;-91
2021/12/18 10:13:53;;;;;;;13.60;9.23;;;7.30;99.90;;;;;;5094112;28;20372;-88
2021/12/18 10:16:19;;;;;;;13.55;9.18;;;7.40;99.90;;;;;;5073571;28;20366;-89
2021/12/18 10:18:45;;;;;;;12.73;8.63;;;7.30;99.90;;;;;;5073870;28;20400;-88
2021/12/18 10:21:17;;;;;;;12.63;8.23;;;7.30;99.90;;;;;;5073325;28;20404;-89
2021/12/18 10:23:45;;;;;;;13.40;8.30;;;7.40;99.90;;;;;;5072767;28;20415;-90
2021/12/18 10:26:42;;;;;;;11.82;8.02;;;7.50;99.90;;;;;;5073657;28;20901;-89
2021/12/18 10:29:34;;;;;;;10.30;6.97;;;7.60;99.90;;;;;;5072758;28;20392;-91
2021/12/18 10:32:11;;;;;;;9.52;6.05;;;7.50;99.90;;;;;;5072917;28;20425;-90
2021/12/18 10:34:39;;;;;;;9.52;6.35;;;7.50;99.90;;;;;;5070890;28;20389;-89
2021/12/18 10:37:13;;;;;;;8.73;5.78;;;7.40;99.90;;;;;;5069801;28;20412;-90
2021/12/18 10:39:44;;;;;;;8.33;5.37;;;7.40;99.90;;;;;;5072882;28;20480;-89
2021/12/18 10:42:20;;;;;;;6.90;4.82;;;7.40;99.90;;;;;;5074025;28;20384;-91
2021/12/18 10:45:05;;;;;;;8.23;5.10;;;7.40;99.90;;;;;;5073390;28;20866;-90
2021/12/18 10:47:54;;;;;;;7.57;4.93;;;7.40;99.90;;;;;;5074347;28;20980;-90
2021/12/18 10:50:54;;;;;;;7.17;5.00;;;7.50;99.90;;;;;;5075915;28;20459;-89
2021/12/18 10:53:27;;;;;;;6.17;5.00;;;7.50;99.90;;;;;;5033210;28;20398;-88
2021/12/18 10:55:57;;;;;;;5.97;4.50;;;7.70;99.90;;;;;;5072568;28;20389;-92
2021/12/18 10:58:34;;;;;;;6.32;4.43;;;7.70;99.90;;;;;;5069518;28;20387;-89
2021/12/18 11:01:07;;;;;;;7.35;4.50;;;7.70;99.90;;;;;;5076459;28;20392;-88
2021/12/18 11:03:33;;;;;;;5.60;3.88;;;7.70;99.90;;;;;;5055275;28;20402;-90
2021/12/18 11:06:01;;;;;;;5.20;4.43;;;7.70;99.90;;;;;;5072062;28;20381;-88
2021/12/18 11:08:27;;;;;;;4.47;3.55;;;7.70;99.90;;;;;;5092883;28;20408;-90
2021/12/18 11:14:11;;;;;;;4.78;3.80;;;7.60;99.90;;;;;;5034212;28;20386;-90
2021/12/18 11:16:39;;;;;;;4.25;3.35;;;7.70;99.90;;;;;;5072815;28;20926;-91
2021/12/18 11:19:13;;;;;;;4.27;3.40;;;7.70;99.90;;;;;;5055213;28;20387;-89
2021/12/18 11:22:00;;;;;;;3.97;3.10;;;7.70;99.90;;;;;;5073709;28;20406;-88
2021/12/18 11:24:40;;;;;;;4.32;3.20;;;7.70;99.90;;;;;;5071493;28;20471;-90
2021/12/18 11:27:10;;;;;;;3.47;2.67;;;7.70;99.90;;;;;;5076702;28;20548;-89
2021/12/18 11:29:47;;;;;;;3.20;2.50;;;7.70;99.90;;;;;;5073825;28;20397;-92
2021/12/18 11:32:28;;;;;;;4.03;2.80;;;7.80;99.90;;;;;;5076993;28;20513;-91
2021/12/18 11:35:03;;;;;;;3.13;2.70;;;7.80;99.90;;;;;;5059472;28;22508;-87
2021/12/18 11:37:51;;;;;;;2.95;2.42;;;7.80;99.90;;;;;;5069429;28;20495;-90
2021/12/18 11:40:21;;;;;;;2.83;2.37;;;7.70;99.90;;;;;;5056647;28;20386;-90
2021/12/18 11:42:46;;;;;;;3.00;1.90;;;7.80;99.90;;;;;;5057213;28;20471;-91
2021/12/18 11:45:13;;;;;;;2.83;2.20;;;7.90;99.90;;;;;;5060912;28;20852;-91
2021/12/18 11:47:44;;;;;;;3.25;2.50;;;7.90;99.90;;;;;;5055864;28;20393;-90
2021/12/18 11:50:12;;;;;;;2.50;2.10;;;7.90;99.90;;;;;;5054117;28;20385;-90
2021/12/18 11:52:56;;;;;;;4.20;2.33;;;8.00;99.90;;;;;;5055843;28;20452;-92
2021/12/18 11:55:23;;;;;;;3.03;2.10;;;8.10;99.90;;;;;;5053479;28;20378;-90
2021/12/18 11:57:57;;;;;;;3.00;2.25;;;8.10;99.90;;;;;;5070772;28;20396;-90
2021/12/18 12:00:34;;;;;;;2.83;2.30;;;8.10;99.90;;;;;;5073526;28;20475;-92
2021/12/18 12:03:04;;;;;;;2.90;2.60;;;8.10;99.90;;;;;;5076724;28;20376;-90
2021/12/18 12:05:39;;;;;;;3.97;3.00;;;8.20;99.90;;;;;;5075745;28;20380;-91
2021/12/18 12:08:32;;;;;;;2.90;2.40;;;8.10;99.90;;;;;;5063957;28;20503;-91
2021/12/18 12:11:15;;;;;;;3.35;2.70;;;8.20;99.90;;;;;;5063484;28;20418;-92
2021/12/18 12:14:00;;;;;;;2.60;2.35;;;8.20;99.90;;;;;;5067422;28;20952;-89
2021/12/18 12:16:46;;;;;;;2.40;2.13;;;8.30;99.90;;;;;;5053463;28;20400;-89
2021/12/18 12:19:27;;;;;;;2.65;2.45;;;8.40;99.90;;;;;;5054239;28;20389;-90
2021/12/18 12:21:56;;;;;;;3.50;2.23;;;8.40;99.90;;;;;;5059780;28;20402;-88
2021/12/18 12:24:27;;;;;;;2.53;2.10;;;8.40;99.90;;;;;;5071730;28;20905;-90
2021/12/18 12:26:54;;;;;;;3.25;1.98;;;8.40;99.90;;;;;;5053351;28;20752;-93
2021/12/18 12:29:20;;;;;;;1.90;1.70;;;8.20;99.90;;;;;;5067524;28;20444;-90
2021/12/18 12:32:02;;;;;;;3.00;2.20;;;8.20;99.90;;;;;;5064403;28;20399;-90
2021/12/18 12:34:37;;;;;;;2.72;2.35;;;8.20;99.90;;;;;;5067172;28;20408;-92
2021/12/18 12:37:30;;;;;;;3.33;2.20;;;8.20;99.90;;;;;;5069823;28;20380;-92
2021/12/18 12:40:12;;;;;;;3.15;2.10;;;8.10;99.90;;;;;;5070171;28;20435;-91
2021/12/18 12:42:42;;;;;;;2.10;1.90;;;8.10;99.90;;;;;;5069315;28;20384;-91
2021/12/18 12:45:41;;;;;;;2.42;2.17;;;8.00;99.90;;;;;;5068400;28;20396;-92
2021/12/18 12:48:10;;;;;;;3.80;2.10;;;8.00;99.90;;;;;;5071394;28;20407;-90
2021/12/18 12:51:00;;;;;;;2.85;2.20;;;8.00;99.90;;;;;;5071496;28;20417;-91
2021/12/18 12:53:49;;;;;;;3.40;2.22;;;8.00;99.90;;;;;;5069997;28;20392;-91
2021/12/18 12:56:17;;;;;;;3.40;2.20;;;8.00;99.90;;;;;;5071067;28;20385;-89
2021/12/18 12:58:43;;;;;;;2.75;2.10;;;8.00;99.90;;;;;;5072174;28;21260;-92
2021/12/18 13:01:09;;;;;;;2.25;1.92;;;8.00;99.90;;;;;;5071960;28;20858;-87
2021/12/18 13:03:37;;;;;;;2.33;2.10;;;7.90;99.90;;;;;;5072927;28;20468;-89
2021/12/18 13:06:04;;;;;;;3.45;2.35;;;7.80;99.90;;;;;;5071034;28;20384;-90
2021/12/18 13:08:33;;;;;;;2.80;2.60;;;7.90;99.90;;;;;;5073431;28;20864;-90
2021/12/18 13:11:00;;;;;;;2.53;2.10;;;7.90;99.90;;;;;;5070604;28;21542;-89
2021/12/18 13:13:30;;;;;;;2.90;2.20;;;7.80;99.90;;;;;;5069608;28;20396;-92
2021/12/18 13:16:14;;;;;;;2.83;2.35;;;7.80;99.90;;;;;;5064572;28;20483;-89
2021/12/18 13:18:42;;;;;;;3.55;2.42;;;7.90;99.90;;;;;;5072717;28;20856;-91
2021/12/18 13:21:19;;;;;;;2.40;2.20;;;7.90;99.90;;;;;;5071515;28;20376;-88
2021/12/18 13:24:19;;;;;;;2.22;2.03;;;7.80;99.90;;;;;;5076529;28;20388;-90
2021/12/18 13:26:46;;;;;;;2.72;2.05;;;7.80;99.90;;;;;;5074824;28;20379;-90
2021/12/18 13:29:15;;;;;;;5.80;5.20;;;7.90;99.90;;;;;;5082770;28;20745;-89
2021/12/18 13:31:49;;;;;;;3.45;2.78;;;7.80;99.90;;;;;;5075882;28;20391;-90
2021/12/18 13:34:20;;;;;;;2.53;2.15;;;7.90;99.90;;;;;;5076496;28;20388;-90
2021/12/18 13:36:58;;;;;;;3.27;2.57;;;7.80;99.90;;;;;;5075029;28;20519;-90
2021/12/18 13:39:46;;;;;;;3.60;2.53;;;7.90;99.90;;;;;;5076590;28;20385;-87
2021/12/18 13:42:21;;;;;;;2.72;2.53;;;7.90;99.90;;;;;;5073106;28;20385;-90
2021/12/18 13:45:01;;;;;;;2.67;2.47;;;7.70;99.90;;;;;;5070185;28;20380;-89
2021/12/18 13:47:27;;;;;;;3.78;3.20;;;7.80;99.90;;;;;;5072403;28;20389;-90
2021/12/18 13:50:11;;;;;;;5.15;3.78;;;7.80;99.90;;;;;;5073557;28;20487;-93